sensor_id;sensor_type;location;lat;lon;timestamp;pressure;altitude;pressure_sealevel;temperature
11926;BMP180;6022;48.768;18.608;2023-05-02T00:02:27;98438.91;;;11.67
11926;BMP180;6022;48.768;18.608;2023-05-02T00:04:55;98442.94;;;11.69
11926;BMP180;6022;48.768;18.608;2023-05-02T00:07:22;98443.06;;;11.68
11926;BMP180;6022;48.768;18.608;2023-05-02T00:09:50;98447.22;;;11.69
11926;BMP180;6022;48.768;18.608;2023-05-02T00:12:17;98444.28;;;11.62
11926;BMP180;6022;48.768;18.608;2023-05-02T00:14:44;98439.41;;;11.47
11926;BMP180;6022;48.768;18.608;2023-05-02T00:17:19;98438.97;;;11.40
11926;BMP180;6022;48.768;18.608;2023-05-02T00:19:47;98426.78;;;11.33
11926;BMP180;6022;48.768;18.608;2023-05-02T00:22:14;98433.88;;;11.28
11926;BMP180;6022;48.768;18.608;2023-05-02T00:24:41;98436.91;;;11.21
11926;BMP180;6022;48.768;18.608;2023-05-02T00:27:08;98433.66;;;11.19
11926;BMP180;6022;48.768;18.608;2023-05-02T00:29:38;98427.88;;;11.17
11926;BMP180;6022;48.768;18.608;2023-05-02T00:32:05;98439.13;;;11.00
11926;BMP180;6022;48.768;18.608;2023-05-02T00:34:33;98432.44;;;10.99
11926;BMP180;6022;48.768;18.608;2023-05-02T00:37:00;98436.91;;;10.96
11926;BMP180;6022;48.768;18.608;2023-05-02T00:39:27;98435.47;;;10.92
11926;BMP180;6022;48.768;18.608;2023-05-02T00:41:58;98434.03;;;10.88
11926;BMP180;6022;48.768;18.608;2023-05-02T00:44:25;98426.34;;;10.90
11926;BMP180;6022;48.768;18.608;2023-05-02T00:46:54;98433.81;;;10.91
11926;BMP180;6022;48.768;18.608;2023-05-02T00:49:22;98436.00;;;10.97
11926;BMP180;6022;48.768;18.608;2023-05-02T00:51:49;98435.38;;;10.93
11926;BMP180;6022;48.768;18.608;2023-05-02T00:54:16;98433.66;;;10.94
11926;BMP180;6022;48.768;18.608;2023-05-02T00:56:44;98437.47;;;10.87
11926;BMP180;6022;48.768;18.608;2023-05-02T00:59:13;98436.19;;;10.94
11926;BMP180;6022;48.768;18.608;2023-05-02T01:02:10;98438.31;;;10.88
11926;BMP180;6022;48.768;18.608;2023-05-02T01:04:53;98440.94;;;10.86
11926;BMP180;6022;48.768;18.608;2023-05-02T01:08:24;98435.78;;;10.88
11926;BMP180;6022;48.768;18.608;2023-05-02T01:11:00;98442.75;;;10.84
11926;BMP180;6022;48.768;18.608;2023-05-02T01:13:33;98438.84;;;10.66
11926;BMP180;6022;48.768;18.608;2023-05-02T01:16:03;98435.91;;;10.72
11926;BMP180;6022;48.768;18.608;2023-05-02T01:18:37;98439.69;;;10.79
11926;BMP180;6022;48.768;18.608;2023-05-02T01:21:09;98441.72;;;10.74
11926;BMP180;6022;48.768;18.608;2023-05-02T01:24:06;98436.03;;;10.71
11926;BMP180;6022;48.768;18.608;2023-05-02T01:29:32;98442.09;;;10.68
11926;BMP180;6022;48.768;18.608;2023-05-02T01:32:02;98436.53;;;10.63
11926;BMP180;6022;48.768;18.608;2023-05-02T01:34:34;98435.69;;;10.63
11926;BMP180;6022;48.768;18.608;2023-05-02T01:37:05;98440.19;;;10.46
11926;BMP180;6022;48.768;18.608;2023-05-02T01:39:37;98441.63;;;10.50
11926;BMP180;6022;48.768;18.608;2023-05-02T01:42:05;98439.81;;;10.52
11926;BMP180;6022;48.768;18.608;2023-05-02T01:44:34;98441.53;;;10.51
11926;BMP180;6022;48.768;18.608;2023-05-02T01:47:04;98434.03;;;10.50
11926;BMP180;6022;48.768;18.608;2023-05-02T01:49:35;98429.66;;;10.52
11926;BMP180;6022;48.768;18.608;2023-05-02T01:52:07;98439.31;;;10.47
11926;BMP180;6022;48.768;18.608;2023-05-02T01:54:39;98433.22;;;10.49
11926;BMP180;6022;48.768;18.608;2023-05-02T01:57:08;98437.56;;;10.47
11926;BMP180;6022;48.768;18.608;2023-05-02T01:59:39;98438.59;;;10.45
11926;BMP180;6022;48.768;18.608;2023-05-02T02:02:11;98436.38;;;10.53
11926;BMP180;6022;48.768;18.608;2023-05-02T02:04:41;98440.03;;;10.49
11926;BMP180;6022;48.768;18.608;2023-05-02T02:07:12;98428.44;;;10.45
11926;BMP180;6022;48.768;18.608;2023-05-02T02:09:39;98427.25;;;10.50
11926;BMP180;6022;48.768;18.608;2023-05-02T02:12:25;98436.78;;;10.47
11926;BMP180;6022;48.768;18.608;2023-05-02T02:15:02;98435.28;;;10.56
11926;BMP180;6022;48.768;18.608;2023-05-02T02:17:43;98441.16;;;10.57
11926;BMP180;6022;48.768;18.608;2023-05-02T02:20:14;98440.16;;;10.59
11926;BMP180;6022;48.768;18.608;2023-05-02T02:22:43;98434.56;;;10.55
11926;BMP180;6022;48.768;18.608;2023-05-02T02:25:14;98436.06;;;10.45
11926;BMP180;6022;48.768;18.608;2023-05-02T02:27:42;98430.97;;;10.45
11926;BMP180;6022;48.768;18.608;2023-05-02T02:30:11;98433.31;;;10.48
11926;BMP180;6022;48.768;18.608;2023-05-02T02:32:39;98433.06;;;10.38
11926;BMP180;6022;48.768;18.608;2023-05-02T02:35:07;98425.47;;;10.38
11926;BMP180;6022;48.768;18.608;2023-05-02T02:37:46;98428.38;;;10.32
11926;BMP180;6022;48.768;18.608;2023-05-02T02:40:39;98423.50;;;10.29
11926;BMP180;6022;48.768;18.608;2023-05-02T02:43:28;98424.00;;;10.22
11926;BMP180;6022;48.768;18.608;2023-05-02T02:47:00;98430.13;;;10.18
11926;BMP180;6022;48.768;18.608;2023-05-02T02:52:49;98432.41;;;10.22
11926;BMP180;6022;48.768;18.608;2023-05-02T02:55:52;98438.47;;;10.20
11926;BMP180;6022;48.768;18.608;2023-05-02T02:58:34;98435.75;;;10.23
11926;BMP180;6022;48.768;18.608;2023-05-02T03:01:10;98437.91;;;10.29
11926;BMP180;6022;48.768;18.608;2023-05-02T03:03:42;98436.19;;;10.29
11926;BMP180;6022;48.768;18.608;2023-05-02T03:06:10;98434.97;;;10.35
11926;BMP180;6022;48.768;18.608;2023-05-02T03:08:42;98438.22;;;10.37
11926;BMP180;6022;48.768;18.608;2023-05-02T03:11:10;98444.22;;;10.36
11926;BMP180;6022;48.768;18.608;2023-05-02T03:13:37;98439.78;;;10.39
11926;BMP180;6022;48.768;18.608;2023-05-02T03:16:37;98435.19;;;10.32
11926;BMP180;6022;48.768;18.608;2023-05-02T03:19:06;98432.72;;;10.30
11926;BMP180;6022;48.768;18.608;2023-05-02T03:21:34;98434.47;;;10.30
11926;BMP180;6022;48.768;18.608;2023-05-02T03:24:03;98433.91;;;10.25
11926;BMP180;6022;48.768;18.608;2023-05-02T03:26:30;98430.75;;;10.21
11926;BMP180;6022;48.768;18.608;2023-05-02T03:28:57;98436.75;;;10.20
11926;BMP180;6022;48.768;18.608;2023-05-02T03:31:25;98437.22;;;10.13
11926;BMP180;6022;48.768;18.608;2023-05-02T03:33:52;98433.97;;;10.11
11926;BMP180;6022;48.768;18.608;2023-05-02T03:36:20;98435.56;;;10.12
11926;BMP180;6022;48.768;18.608;2023-05-02T03:38:47;98437.41;;;10.10
11926;BMP180;6022;48.768;18.608;2023-05-02T03:41:14;98448.00;;;10.17
11926;BMP180;6022;48.768;18.608;2023-05-02T03:43:41;98448.50;;;10.21
11926;BMP180;6022;48.768;18.608;2023-05-02T03:46:09;98439.63;;;10.28
11926;BMP180;6022;48.768;18.608;2023-05-02T03:48:37;98440.50;;;10.27
11926;BMP180;6022;48.768;18.608;2023-05-02T03:51:05;98436.47;;;10.25
11926;BMP180;6022;48.768;18.608;2023-05-02T03:53:35;98435.91;;;10.34
11926;BMP180;6022;48.768;18.608;2023-05-02T03:56:03;98442.31;;;10.39
11926;BMP180;6022;48.768;18.608;2023-05-02T03:58:31;98450.41;;;10.18
11926;BMP180;6022;48.768;18.608;2023-05-02T04:00:58;98442.28;;;10.13
11926;BMP180;6022;48.768;18.608;2023-05-02T04:03:26;98447.53;;;10.24
11926;BMP180;6022;48.768;18.608;2023-05-02T04:05:56;98452.13;;;10.31
11926;BMP180;6022;48.768;18.608;2023-05-02T04:08:23;98455.16;;;10.36
11926;BMP180;6022;48.768;18.608;2023-05-02T04:10:50;98457.06;;;10.33
11926;BMP180;6022;48.768;18.608;2023-05-02T04:13:18;98452.00;;;10.33
11926;BMP180;6022;48.768;18.608;2023-05-02T04:15:46;98459.34;;;10.37
11926;BMP180;6022;48.768;18.608;2023-05-02T04:18:13;98459.06;;;10.42
11926;BMP180;6022;48.768;18.608;2023-05-02T04:20:42;98467.75;;;10.38
11926;BMP180;6022;48.768;18.608;2023-05-02T04:23:11;98454.19;;;10.39
11926;BMP180;6022;48.768;18.608;2023-05-02T04:25:38;98462.31;;;10.44
11926;BMP180;6022;48.768;18.608;2023-05-02T04:28:05;98459.59;;;10.47
11926;BMP180;6022;48.768;18.608;2023-05-02T04:30:33;98465.38;;;10.49
11926;BMP180;6022;48.768;18.608;2023-05-02T04:33:00;98465.78;;;10.55
11926;BMP180;6022;48.768;18.608;2023-05-02T04:35:27;98462.78;;;10.62
11926;BMP180;6022;48.768;18.608;2023-05-02T04:37:54;98464.22;;;10.66
11926;BMP180;6022;48.768;18.608;2023-05-02T04:40:22;98458.66;;;10.74
11926;BMP180;6022;48.768;18.608;2023-05-02T04:42:50;98470.84;;;10.69
11926;BMP180;6022;48.768;18.608;2023-05-02T04:45:17;98466.19;;;10.75
11926;BMP180;6022;48.768;18.608;2023-05-02T04:47:44;98462.25;;;10.84
11926;BMP180;6022;48.768;18.608;2023-05-02T04:50:12;98459.34;;;10.90
11926;BMP180;6022;48.768;18.608;2023-05-02T04:52:40;98467.25;;;10.97
11926;BMP180;6022;48.768;18.608;2023-05-02T04:55:08;98479.25;;;11.08
11926;BMP180;6022;48.768;18.608;2023-05-02T04:57:35;98482.41;;;11.11
11926;BMP180;6022;48.768;18.608;2023-05-02T05:00:02;98503.78;;;11.21
11926;BMP180;6022;48.768;18.608;2023-05-02T05:02:30;98512.91;;;11.24
11926;BMP180;6022;48.768;18.608;2023-05-02T05:05:00;98518.31;;;11.19
11926;BMP180;6022;48.768;18.608;2023-05-02T05:07:27;98523.66;;;11.15
11926;BMP180;6022;48.768;18.608;2023-05-02T05:09:54;98517.28;;;11.22
11926;BMP180;6022;48.768;18.608;2023-05-02T05:12:22;98510.63;;;11.07
11926;BMP180;6022;48.768;18.608;2023-05-02T05:14:49;98497.81;;;10.96
11926;BMP180;6022;48.768;18.608;2023-05-02T05:17:16;98482.06;;;10.91
11926;BMP180;6022;48.768;18.608;2023-05-02T05:19:45;98493.44;;;10.86
11926;BMP180;6022;48.768;18.608;2023-05-02T05:22:12;98476.69;;;10.95
11926;BMP180;6022;48.768;18.608;2023-05-02T05:24:39;98498.47;;;11.12
11926;BMP180;6022;48.768;18.608;2023-05-02T05:27:07;98510.59;;;11.33
11926;BMP180;6022;48.768;18.608;2023-05-02T05:29:34;98514.41;;;11.52
11926;BMP180;6022;48.768;18.608;2023-05-02T05:32:01;98526.63;;;11.72
11926;BMP180;6022;48.768;18.608;2023-05-02T05:34:28;98525.38;;;11.90
11926;BMP180;6022;48.768;18.608;2023-05-02T05:36:55;98532.59;;;12.08
11926;BMP180;6022;48.768;18.608;2023-05-02T05:39:23;98533.78;;;12.27
11926;BMP180;6022;48.768;18.608;2023-05-02T05:41:51;98526.69;;;12.55
11926;BMP180;6022;48.768;18.608;2023-05-02T05:44:18;98528.94;;;12.95
11926;BMP180;6022;48.768;18.608;2023-05-02T05:46:48;98529.19;;;13.37
11926;BMP180;6022;48.768;18.608;2023-05-02T05:49:15;98528.09;;;14.19
11926;BMP180;6022;48.768;18.608;2023-05-02T05:51:43;98530.59;;;15.76
11926;BMP180;6022;48.768;18.608;2023-05-02T05:54:10;98521.47;;;16.90
11926;BMP180;6022;48.768;18.608;2023-05-02T05:56:37;98515.13;;;16.94
11926;BMP180;6022;48.768;18.608;2023-05-02T05:59:05;98515.13;;;16.94
11926;BMP180;6022;48.768;18.608;2023-05-02T06:01:32;98515.66;;;16.01
11926;BMP180;6022;48.768;18.608;2023-05-02T06:04:00;98515.13;;;16.85
11926;BMP180;6022;48.768;18.608;2023-05-02T06:06:29;98512.50;;;17.88
11926;BMP180;6022;48.768;18.608;2023-05-02T06:08:57;98514.97;;;18.52
11926;BMP180;6022;48.768;18.608;2023-05-02T06:11:25;98514.53;;;18.30
11926;BMP180;6022;48.768;18.608;2023-05-02T06:13:52;98514.16;;;17.70
11926;BMP180;6022;48.768;18.608;2023-05-02T06:16:20;98517.72;;;17.03
11926;BMP180;6022;48.768;18.608;2023-05-02T06:18:50;98519.44;;;17.59
11926;BMP180;6022;48.768;18.608;2023-05-02T06:21:20;98525.63;;;17.76
11926;BMP180;6022;48.768;18.608;2023-05-02T06:23:47;98517.56;;;18.43
11926;BMP180;6022;48.768;18.608;2023-05-02T06:26:14;98522.63;;;18.35
11926;BMP180;6022;48.768;18.608;2023-05-02T06:28:42;98521.44;;;18.29
11926;BMP180;6022;48.768;18.608;2023-05-02T06:31:10;98523.28;;;18.37
11926;BMP180;6022;48.768;18.608;2023-05-02T06:33:37;98512.94;;;18.29
11926;BMP180;6022;48.768;18.608;2023-05-02T06:36:05;98516.63;;;18.70
11926;BMP180;6022;48.768;18.608;2023-05-02T06:38:40;98521.38;;;18.39
11926;BMP180;6022;48.768;18.608;2023-05-02T06:41:18;98513.47;;;18.93
11926;BMP180;6022;48.768;18.608;2023-05-02T06:43:46;98515.97;;;19.97
11926;BMP180;6022;48.768;18.608;2023-05-02T06:46:14;98508.19;;;21.60
11926;BMP180;6022;48.768;18.608;2023-05-02T06:48:41;98504.13;;;21.25
11926;BMP180;6022;48.768;18.608;2023-05-02T06:51:13;98501.50;;;22.88
11926;BMP180;6022;48.768;18.608;2023-05-02T06:53:54;98501.06;;;22.77
11926;BMP180;6022;48.768;18.608;2023-05-02T06:56:22;98497.81;;;22.45
11926;BMP180;6022;48.768;18.608;2023-05-02T06:58:51;98495.41;;;21.03
11926;BMP180;6022;48.768;18.608;2023-05-02T07:01:19;98498.66;;;21.76
11926;BMP180;6022;48.768;18.608;2023-05-02T07:03:49;98492.50;;;22.46
11926;BMP180;6022;48.768;18.608;2023-05-02T07:06:17;98491.78;;;23.13
11926;BMP180;6022;48.768;18.608;2023-05-02T07:08:44;98494.50;;;22.97
11926;BMP180;6022;48.768;18.608;2023-05-02T07:11:12;98495.38;;;23.12
11926;BMP180;6022;48.768;18.608;2023-05-02T07:13:39;98491.31;;;23.09
11926;BMP180;6022;48.768;18.608;2023-05-02T07:16:20;98500.88;;;22.78
11926;BMP180;6022;48.768;18.608;2023-05-02T07:18:49;98495.41;;;23.85
11926;BMP180;6022;48.768;18.608;2023-05-02T07:21:16;98506.00;;;24.61
11926;BMP180;6022;48.768;18.608;2023-05-02T07:23:46;98502.22;;;24.92
11926;BMP180;6022;48.768;18.608;2023-05-02T07:26:13;98496.09;;;25.41
11926;BMP180;6022;48.768;18.608;2023-05-02T07:28:43;98502.34;;;25.05
11926;BMP180;6022;48.768;18.608;2023-05-02T07:31:10;98510.25;;;24.83
11926;BMP180;6022;48.768;18.608;2023-05-02T07:33:50;98501.97;;;24.73
11926;BMP180;6022;48.768;18.608;2023-05-02T07:36:25;98493.34;;;26.30
11926;BMP180;6022;48.768;18.608;2023-05-02T07:38:54;98505.66;;;27.02
11926;BMP180;6022;48.768;18.608;2023-05-02T07:41:22;98509.31;;;27.84
11926;BMP180;6022;48.768;18.608;2023-05-02T07:43:49;98513.03;;;28.46
11926;BMP180;6022;48.768;18.608;2023-05-02T07:46:29;98512.22;;;28.46
11926;BMP180;6022;48.768;18.608;2023-05-02T07:48:59;98506.88;;;28.15
11926;BMP180;6022;48.768;18.608;2023-05-02T07:51:57;98502.28;;;27.21
11926;BMP180;6022;48.768;18.608;2023-05-02T07:54:25;98506.13;;;27.82
11926;BMP180;6022;48.768;18.608;2023-05-02T07:56:52;98507.31;;;27.93
11926;BMP180;6022;48.768;18.608;2023-05-02T07:59:31;98514.41;;;28.49
11926;BMP180;6022;48.768;18.608;2023-05-02T08:02:01;98508.88;;;28.32
11926;BMP180;6022;48.768;18.608;2023-05-02T08:04:31;98505.84;;;28.29
11926;BMP180;6022;48.768;18.608;2023-05-02T08:07:01;98513.31;;;28.13
11926;BMP180;6022;48.768;18.608;2023-05-02T08:09:28;98502.50;;;27.26
11926;BMP180;6022;48.768;18.608;2023-05-02T08:12:01;98511.25;;;25.58
11926;BMP180;6022;48.768;18.608;2023-05-02T08:14:29;98511.19;;;26.06
11926;BMP180;6022;48.768;18.608;2023-05-02T08:17:01;98512.09;;;26.59
11926;BMP180;6022;48.768;18.608;2023-05-02T08:19:28;98503.25;;;27.07
11926;BMP180;6022;48.768;18.608;2023-05-02T08:21:55;98497.88;;;27.34
11926;BMP180;6022;48.768;18.608;2023-05-02T08:24:23;98506.75;;;27.52
11926;BMP180;6022;48.768;18.608;2023-05-02T08:26:50;98511.75;;;27.60
11926;BMP180;6022;48.768;18.608;2023-05-02T08:29:18;98516.13;;;27.34
11926;BMP180;6022;48.768;18.608;2023-05-02T08:31:52;98513.56;;;26.75
11926;BMP180;6022;48.768;18.608;2023-05-02T08:34:20;98515.94;;;26.63
11926;BMP180;6022;48.768;18.608;2023-05-02T08:36:48;98520.59;;;26.81
11926;BMP180;6022;48.768;18.608;2023-05-02T08:39:24;98519.28;;;26.51
11926;BMP180;6022;48.768;18.608;2023-05-02T08:41:54;98517.84;;;26.15
11926;BMP180;6022;48.768;18.608;2023-05-02T08:44:22;98530.78;;;26.02
11926;BMP180;6022;48.768;18.608;2023-05-02T08:46:51;98520.41;;;26.36
11926;BMP180;6022;48.768;18.608;2023-05-02T08:49:19;98522.84;;;26.44
11926;BMP180;6022;48.768;18.608;2023-05-02T08:51:50;98526.63;;;26.41
11926;BMP180;6022;48.768;18.608;2023-05-02T08:54:25;98523.38;;;26.33
11926;BMP180;6022;48.768;18.608;2023-05-02T08:56:58;98517.34;;;26.72
11926;BMP180;6022;48.768;18.608;2023-05-02T08:59:25;98515.22;;;26.95
11926;BMP180;6022;48.768;18.608;2023-05-02T09:02:59;98514.34;;;26.75
11926;BMP180;6022;48.768;18.608;2023-05-02T09:05:06;98513.41;;;26.36
11926;BMP180;6022;48.768;18.608;2023-05-02T09:07:50;98514.00;;;25.78
11926;BMP180;6022;48.768;18.608;2023-05-02T09:10:17;98513.34;;;25.69
11926;BMP180;6022;48.768;18.608;2023-05-02T09:12:44;98508.94;;;25.49
11926;BMP180;6022;48.768;18.608;2023-05-02T09:15:15;98509.22;;;25.12
11926;BMP180;6022;48.768;18.608;2023-05-02T09:17:47;98514.50;;;24.69
11926;BMP180;6022;48.768;18.608;2023-05-02T09:20:15;98513.00;;;24.61
11926;BMP180;6022;48.768;18.608;2023-05-02T09:22:51;98516.31;;;24.40
11926;BMP180;6022;48.768;18.608;2023-05-02T09:25:19;98513.75;;;24.26
11926;BMP180;6022;48.768;18.608;2023-05-02T09:27:52;98515.16;;;24.00
11926;BMP180;6022;48.768;18.608;2023-05-02T09:30:27;98519.25;;;23.94
11926;BMP180;6022;48.768;18.608;2023-05-02T09:32:54;98517.81;;;23.78
11926;BMP180;6022;48.768;18.608;2023-05-02T09:35:24;98513.97;;;23.88
11926;BMP180;6022;48.768;18.608;2023-05-02T09:37:56;98525.91;;;23.60
11926;BMP180;6022;48.768;18.608;2023-05-02T09:40:24;98524.28;;;23.59
11926;BMP180;6022;48.768;18.608;2023-05-02T09:42:54;98515.84;;;23.21
11926;BMP180;6022;48.768;18.608;2023-05-02T09:45:24;98527.50;;;23.17
11926;BMP180;6022;48.768;18.608;2023-05-02T09:47:52;98526.00;;;23.00
11926;BMP180;6022;48.768;18.608;2023-05-02T09:50:38;98526.59;;;22.80
11926;BMP180;6022;48.768;18.608;2023-05-02T09:53:08;98526.13;;;22.76
11926;BMP180;6022;48.768;18.608;2023-05-02T09:55:37;98530.63;;;22.82
11926;BMP180;6022;48.768;18.608;2023-05-02T09:58:36;98530.09;;;23.17
11926;BMP180;6022;48.768;18.608;2023-05-02T10:01:03;98525.94;;;23.52
11926;BMP180;6022;48.768;18.608;2023-05-02T10:03:35;98531.28;;;23.73
11926;BMP180;6022;48.768;18.608;2023-05-02T10:06:07;98530.13;;;23.53
11926;BMP180;6022;48.768;18.608;2023-05-02T10:08:38;98533.59;;;23.68
11926;BMP180;6022;48.768;18.608;2023-05-02T10:11:07;98526.56;;;23.77
11926;BMP180;6022;48.768;18.608;2023-05-02T10:13:37;98526.47;;;23.70
11926;BMP180;6022;48.768;18.608;2023-05-02T10:16:07;98526.88;;;23.59
11926;BMP180;6022;48.768;18.608;2023-05-02T10:18:51;98516.97;;;23.41
11926;BMP180;6022;48.768;18.608;2023-05-02T10:21:25;98518.53;;;23.50
11926;BMP180;6022;48.768;18.608;2023-05-02T10:23:56;98515.72;;;23.73
11926;BMP180;6022;48.768;18.608;2023-05-02T10:26:24;98516.38;;;23.75
11926;BMP180;6022;48.768;18.608;2023-05-02T10:28:55;98511.72;;;23.49
11926;BMP180;6022;48.768;18.608;2023-05-02T10:31:23;98506.22;;;23.07
11926;BMP180;6022;48.768;18.608;2023-05-02T10:33:51;98502.91;;;22.61
11926;BMP180;6022;48.768;18.608;2023-05-02T10:36:22;98507.66;;;22.79
11926;BMP180;6022;48.768;18.608;2023-05-02T10:38:50;98503.47;;;23.31
11926;BMP180;6022;48.768;18.608;2023-05-02T10:41:25;98509.09;;;24.07
11926;BMP180;6022;48.768;18.608;2023-05-02T10:43:54;98503.47;;;24.82
11926;BMP180;6022;48.768;18.608;2023-05-02T10:46:34;98500.94;;;25.23
11926;BMP180;6022;48.768;18.608;2023-05-02T10:49:10;98496.69;;;25.43
11926;BMP180;6022;48.768;18.608;2023-05-02T10:51:41;98500.19;;;25.29
11926;BMP180;6022;48.768;18.608;2023-05-02T10:54:20;98491.53;;;25.22
11926;BMP180;6022;48.768;18.608;2023-05-02T10:57:03;98497.72;;;25.63
11926;BMP180;6022;48.768;18.608;2023-05-02T10:59:39;98498.78;;;25.54
11926;BMP180;6022;48.768;18.608;2023-05-02T11:05:06;98496.81;;;24.59
11926;BMP180;6022;48.768;18.608;2023-05-02T11:07:35;98492.56;;;24.72
11926;BMP180;6022;48.768;18.608;2023-05-02T11:12:50;98493.25;;;24.95
11926;BMP180;6022;48.768;18.608;2023-05-02T11:18:08;98484.34;;;25.04
11926;BMP180;6022;48.768;18.608;2023-05-02T11:20:43;98479.69;;;24.78
11926;BMP180;6022;48.768;18.608;2023-05-02T11:25:50;98477.47;;;25.38
11926;BMP180;6022;48.768;18.608;2023-05-02T11:31:05;98485.97;;;26.00
11926;BMP180;6022;48.768;18.608;2023-05-02T11:33:33;98484.75;;;26.30
11926;BMP180;6022;48.768;18.608;2023-05-02T11:36:04;98476.22;;;26.49
11926;BMP180;6022;48.768;18.608;2023-05-02T11:38:36;98480.31;;;26.24
11926;BMP180;6022;48.768;18.608;2023-05-02T11:41:05;98484.53;;;25.98
11926;BMP180;6022;48.768;18.608;2023-05-02T11:43:33;98474.97;;;25.23
11926;BMP180;6022;48.768;18.608;2023-05-02T11:46:05;98474.41;;;25.07
11926;BMP180;6022;48.768;18.608;2023-05-02T11:48:56;98484.50;;;25.43
11926;BMP180;6022;48.768;18.608;2023-05-02T11:51:25;98486.13;;;25.44
11926;BMP180;6022;48.768;18.608;2023-05-02T11:53:53;98477.25;;;25.12
11926;BMP180;6022;48.768;18.608;2023-05-02T11:56:23;98477.19;;;25.06
11926;BMP180;6022;48.768;18.608;2023-05-02T11:59:00;98476.31;;;24.99
11926;BMP180;6022;48.768;18.608;2023-05-02T12:01:27;98474.94;;;24.82
11926;BMP180;6022;48.768;18.608;2023-05-02T12:04:02;98470.53;;;24.82
11926;BMP180;6022;48.768;18.608;2023-05-02T12:06:30;98470.00;;;25.07
11926;BMP180;6022;48.768;18.608;2023-05-02T12:09:09;98466.94;;;24.83
11926;BMP180;6022;48.768;18.608;2023-05-02T12:11:37;98470.75;;;24.31
11926;BMP180;6022;48.768;18.608;2023-05-02T12:14:05;98469.34;;;23.64
11926;BMP180;6022;48.768;18.608;2023-05-02T12:16:35;98480.66;;;23.85
11926;BMP180;6022;48.768;18.608;2023-05-02T12:19:03;98477.69;;;23.74
11926;BMP180;6022;48.768;18.608;2023-05-02T12:21:30;98480.31;;;23.52
11926;BMP180;6022;48.768;18.608;2023-05-02T12:24:00;98477.41;;;23.47
11926;BMP180;6022;48.768;18.608;2023-05-02T12:26:28;98485.44;;;23.37
11926;BMP180;6022;48.768;18.608;2023-05-02T12:28:58;98477.56;;;23.31
11926;BMP180;6022;48.768;18.608;2023-05-02T12:31:28;98485.41;;;23.23
11926;BMP180;6022;48.768;18.608;2023-05-02T12:34:00;98473.91;;;23.03
11926;BMP180;6022;48.768;18.608;2023-05-02T12:36:29;98472.44;;;22.78
11926;BMP180;6022;48.768;18.608;2023-05-02T12:39:01;98471.50;;;22.72
11926;BMP180;6022;48.768;18.608;2023-05-02T12:41:32;98475.06;;;22.71
11926;BMP180;6022;48.768;18.608;2023-05-02T12:44:00;98469.47;;;22.59
11926;BMP180;6022;48.768;18.608;2023-05-02T12:46:30;98471.66;;;22.40
11926;BMP180;6022;48.768;18.608;2023-05-02T12:49:06;98472.91;;;22.52
11926;BMP180;6022;48.768;18.608;2023-05-02T12:51:39;98474.50;;;22.53
11926;BMP180;6022;48.768;18.608;2023-05-02T12:54:06;98481.13;;;22.85
11926;BMP180;6022;48.768;18.608;2023-05-02T12:56:40;98474.28;;;22.62
11926;BMP180;6022;48.768;18.608;2023-05-02T12:59:29;98472.09;;;22.51
11926;BMP180;6022;48.768;18.608;2023-05-02T13:01:59;98464.59;;;22.34
11926;BMP180;6022;48.768;18.608;2023-05-02T13:04:37;98465.63;;;22.47
11926;BMP180;6022;48.768;18.608;2023-05-02T13:07:06;98466.88;;;22.29
11926;BMP180;6022;48.768;18.608;2023-05-02T13:09:35;98464.63;;;22.10
11926;BMP180;6022;48.768;18.608;2023-05-02T13:12:04;98469.25;;;21.85
11926;BMP180;6022;48.768;18.608;2023-05-02T13:14:32;98462.75;;;21.97
11926;BMP180;6022;48.768;18.608;2023-05-02T13:16:59;98468.59;;;21.91
11926;BMP180;6022;48.768;18.608;2023-05-02T13:19:26;98467.16;;;21.88
11926;BMP180;6022;48.768;18.608;2023-05-02T13:21:57;98470.56;;;21.81
11926;BMP180;6022;48.768;18.608;2023-05-02T13:24:24;98481.56;;;21.75
11926;BMP180;6022;48.768;18.608;2023-05-02T13:26:53;98480.44;;;21.54
11926;BMP180;6022;48.768;18.608;2023-05-02T13:29:20;98469.00;;;21.32
11926;BMP180;6022;48.768;18.608;2023-05-02T13:31:49;98472.19;;;21.03
11926;BMP180;6022;48.768;18.608;2023-05-02T13:34:17;98483.81;;;20.91
11926;BMP180;6022;48.768;18.608;2023-05-02T13:36:45;98496.16;;;20.64
11926;BMP180;6022;48.768;18.608;2023-05-02T13:39:12;98510.72;;;20.07
11926;BMP180;6022;48.768;18.608;2023-05-02T13:41:39;98513.56;;;19.96
11926;BMP180;6022;48.768;18.608;2023-05-02T13:44:07;98512.50;;;19.64
11926;BMP180;6022;48.768;18.608;2023-05-02T13:46:35;98506.06;;;19.60
11926;BMP180;6022;48.768;18.608;2023-05-02T13:49:04;98511.44;;;19.49
11926;BMP180;6022;48.768;18.608;2023-05-02T13:51:31;98521.53;;;19.25
11926;BMP180;6022;48.768;18.608;2023-05-02T13:53:59;98519.53;;;19.36
11926;BMP180;6022;48.768;18.608;2023-05-02T13:56:27;98523.28;;;19.42
11926;BMP180;6022;48.768;18.608;2023-05-02T13:59:04;98531.69;;;19.52
11926;BMP180;6022;48.768;18.608;2023-05-02T14:01:34;98541.94;;;19.44
11926;BMP180;6022;48.768;18.608;2023-05-02T14:04:05;98539.31;;;19.36
11926;BMP180;6022;48.768;18.608;2023-05-02T14:06:35;98529.56;;;18.95
11926;BMP180;6022;48.768;18.608;2023-05-02T14:09:03;98523.75;;;18.76
11926;BMP180;6022;48.768;18.608;2023-05-02T14:11:44;98507.25;;;18.52
11926;BMP180;6022;48.768;18.608;2023-05-02T14:14:36;98516.38;;;18.37
11926;BMP180;6022;48.768;18.608;2023-05-02T14:17:04;98524.47;;;18.42
11926;BMP180;6022;48.768;18.608;2023-05-02T14:19:37;98517.66;;;18.51
11926;BMP180;6022;48.768;18.608;2023-05-02T14:22:04;98524.34;;;18.70
11926;BMP180;6022;48.768;18.608;2023-05-02T14:24:31;98531.97;;;18.80
11926;BMP180;6022;48.768;18.608;2023-05-02T14:27:02;98541.88;;;18.75
11926;BMP180;6022;48.768;18.608;2023-05-02T14:29:30;98540.03;;;18.67
11926;BMP180;6022;48.768;18.608;2023-05-02T14:31:57;98546.97;;;18.57
11926;BMP180;6022;48.768;18.608;2023-05-02T14:34:25;98554.69;;;17.57
11926;BMP180;6022;48.768;18.608;2023-05-02T14:36:53;98558.44;;;17.72
11926;BMP180;6022;48.768;18.608;2023-05-02T14:39:20;98553.88;;;17.47
11926;BMP180;6022;48.768;18.608;2023-05-02T14:41:50;98553.50;;;17.61
11926;BMP180;6022;48.768;18.608;2023-05-02T14:44:22;98552.53;;;17.43
11926;BMP180;6022;48.768;18.608;2023-05-02T14:46:55;98556.19;;;17.50
11926;BMP180;6022;48.768;18.608;2023-05-02T14:49:22;98556.56;;;17.55
11926;BMP180;6022;48.768;18.608;2023-05-02T14:51:51;98565.78;;;17.39